• Join FlightAware (Why Join?)
  • Login
  • US Flag 
03:49AM EDT


 

Airport Tracker/Info


-or-


 

Live Flight TrackerFlight Track Log ✈ EJA941 ✈ 11-Jan-2014 ✈ KOMA - KMKC

Flight Track Log - Related Links

Times and Time Zones

All times are in EST time to prevent confusion due to time zone crossing. See the EJA941 flight status page for this flight to view local times or setup timezone preferences in your user account.

Time Position Orientation Groundspeed Altitude Reporting Facility
EST Latitude Longitude Course Direction KTS MPH feet Rate Location/Type
02:46PM 41.3422 -95.8986 North 207 238 4,100  Level Minneapolis Center
02:46PM 41.3536 -95.8906 28° Northeast 227 261 5,600 5,100 Climbing Minneapolis Center
02:47PM 41.3475 -95.8125 96° East 283 326 9,400 4,500 Climbing Minneapolis Center
02:47PM 41.3347 -95.7956 135° Southeast 326 375 10,200 3,600 Climbing Minneapolis Center
02:48PM 41.2550 -95.7606 162° South 343 395 13,200 2,520 Climbing Minneapolis Center
02:49PM 41.1778 -95.7389 168° South 324 373 15,000 1,740 Climbing Minneapolis Center
02:49PM 41.1656 -95.7378 176° South 339 390 15,000  Level Minneapolis Center
02:50PM 41.0711 -95.7139 169° South 375 432 15,000  Level Minneapolis Center
02:51PM 40.9267 -95.6792 170° South 431 496 15,000  Level Minneapolis Center
02:52PM 40.8003 -95.6486 170° South 449 517 15,000  Level Minneapolis Center
02:53PM 40.6714 -95.6164 169° South 463 533 15,000  Level Minneapolis Center
02:54PM 40.5411 -95.5858 170° South 470 541 15,000  Level Minneapolis Center
02:55PM 40.4117 -95.5547 170° South 473 544 15,000  Level Minneapolis Center
02:56PM 40.2817 -95.5247 170° South 473 544 15,000  Level Minneapolis Center
02:57PM 40.1511 -95.4925 169° South 475 547 15,000 -240 Level Minneapolis Center
02:58PM 40.0678 -95.4744 171° South 477 549 14,700 -1,080 Descending Kansas City Center
02:59PM 39.9297 -95.4397 169° South 456 525 13,300 -1,320 Descending Kansas City Center
03:00PM 39.8211 -95.3894 160° South 439 505 12,000 -660 Descending Kansas City Center
03:01PM 39.7261 -95.2942 142° Southeast 447 514 12,000  Level Kansas City Center
03:02PM 39.6203 -95.1814 141° Southeast 439 505 12,000  Level Kansas City Center
03:03PM 39.5297 -95.0875 141° Southeast 433 498 12,000 -840 Level Kansas City Center
03:04PM 39.4386 -94.9644 134° Southeast 420 483 10,300 -1,020 Descending Kansas City Center
03:05PM 39.4267 -94.8453 97° East 342 394 10,000 -1,080 Descending Kansas City Center
03:06PM 39.4156 -94.7406 98° East 310 357 8,100 -1,500 Descending Kansas City Center
03:07PM 39.3442 -94.7042 158° South 271 312 7,000 -600 Descending Kansas City Center
03:08PM 39.2797 -94.7153 188° South 247 284 6,900 -1,020 Descending Kansas City Center
03:09PM 39.2042 -94.7292 188° South 245 282 5,000 -1,560 Descending Kansas City Center
03:10PM 39.1389 -94.7350 184° South 245 282 3,800 -1,140 Descending Kansas City Center
03:11PM 39.0842 -94.6961 151° Southeast 234 269 2,700 -960 Descending Kansas City Center
03:12PM 39.0758 -94.6200 98° East 191 220 1,900 -720 Descending Kansas City Center
03:13PM 39.1022 -94.5992 31° Northeast 159 183 1,300 -600 Descending Kansas City Center